Time;durP1;ratioP1;P1;durP2;ratioP2;P2;SDS_P1;SDS_P2;PMS_P1;PMS_P2;Temp;Humidity;BMP_temperature;BMP_pressure;BME280_temperature;BME280_humidity;BME280_pressure;Samples;Min_cycle;Max_cycle;Signal;HPM_P1;HPM_P2
2023/10/29 00:00:18;;;;;;;1.50;1.00;;;5.70;99.90;;;;;;5108838;27;20493;-82
2023/10/29 00:02:45;;;;;;;1.63;1.47;;;5.70;99.90;;;;;;5109373;27;20496;-82
2023/10/29 00:05:12;;;;;;;2.27;1.40;;;5.70;99.90;;;;;;5107841;27;21485;-82
2023/10/29 00:07:39;;;;;;;1.50;1.20;;;5.60;99.90;;;;;;5113203;27;20532;-82
2023/10/29 00:10:09;;;;;;;1.77;1.20;;;5.50;99.90;;;;;;5118024;27;20486;-82
2023/10/29 00:12:36;;;;;;;1.30;1.20;;;5.50;99.90;;;;;;5108917;27;20576;-83
2023/10/29 00:15:04;;;;;;;2.70;1.53;;;5.50;99.90;;;;;;5111524;27;20565;-82
2023/10/29 00:17:31;;;;;;;2.23;1.50;;;5.50;99.90;;;;;;5109106;27;20509;-82
2023/10/29 00:19:59;;;;;;;2.20;1.30;;;5.50;99.90;;;;;;5115909;27;20458;-82
2023/10/29 00:22:26;;;;;;;1.70;1.10;;;5.50;99.90;;;;;;5111319;27;20461;-83
2023/10/29 00:24:53;;;;;;;2.50;1.67;;;5.50;99.90;;;;;;5106287;27;20449;-82
2023/10/29 00:27:22;;;;;;;9.23;1.20;;;5.50;99.90;;;;;;5103031;27;20907;-82
2023/10/29 00:29:49;;;;;;;2.40;2.13;;;5.40;99.90;;;;;;5114584;27;20565;-82
2023/10/29 00:32:18;;;;;;;1.40;1.30;;;5.30;99.90;;;;;;5113014;27;20831;-82
2023/10/29 00:34:46;;;;;;;1.50;1.13;;;5.20;99.90;;;;;;5110737;27;20450;-82
2023/10/29 00:37:13;;;;;;;8.67;2.27;;;5.20;99.90;;;;;;5108421;27;20829;-82
2023/10/29 00:39:39;;;;;;;2.60;1.80;;;5.20;99.90;;;;;;5121643;27;20463;-82
2023/10/29 00:42:06;;;;;;;2.13;1.60;;;5.30;99.90;;;;;;5117507;27;20487;-82
2023/10/29 00:44:35;;;;;;;2.00;1.03;;;5.30;99.90;;;;;;5112457;27;21065;-82
2023/10/29 00:47:01;;;;;;;1.63;1.33;;;5.20;99.90;;;;;;5109396;27;20991;-82
2023/10/29 00:49:28;;;;;;;1.70;1.20;;;5.30;99.90;;;;;;5113179;27;20986;-82
2023/10/29 00:51:56;;;;;;;2.40;1.10;;;5.30;99.90;;;;;;5115301;27;20456;-82
2023/10/29 00:54:23;;;;;;;1.57;1.37;;;5.50;99.90;;;;;;5105857;27;20498;-82
2023/10/29 00:56:52;;;;;;;5.60;1.57;;;5.60;99.90;;;;;;5114565;27;20487;-82
2023/10/29 00:59:20;;;;;;;1.83;1.73;;;5.70;99.90;;;;;;5113127;27;20944;-82
2023/10/29 01:01:49;;;;;;;2.50;1.07;;;5.70;99.90;;;;;;5109374;27;20558;-82
2023/10/29 01:04:16;;;;;;;1.77;1.67;;;5.60;99.90;;;;;;5126186;27;20964;-82
2023/10/29 01:06:44;;;;;;;3.10;2.80;;;5.50;99.90;;;;;;5117678;27;20468;-82
2023/10/29 01:09:12;;;;;;;1.63;1.20;;;5.50;99.90;;;;;;5111458;27;20486;-82
2023/10/29 01:11:39;;;;;;;2.17;1.20;;;5.50;99.90;;;;;;5105078;27;20491;-82
2023/10/29 01:14:06;;;;;;;1.77;0.90;;;5.70;99.90;;;;;;5113006;27;20457;-82
2023/10/29 01:16:33;;;;;;;1.10;0.70;;;5.70;99.90;;;;;;5107744;27;20523;-82
2023/10/29 01:19:01;;;;;;;1.27;0.90;;;5.80;99.90;;;;;;5111377;27;20454;-82
2023/10/29 01:21:30;;;;;;;1.90;1.00;;;5.80;99.90;;;;;;5113234;27;20579;-82
2023/10/29 01:23:56;;;;;;;1.27;0.60;;;5.90;99.90;;;;;;5117392;27;21032;-82
2023/10/29 01:26:24;;;;;;;0.90;0.83;;;5.80;99.90;;;;;;5109155;27;20502;-82
2023/10/29 01:28:51;;;;;;;0.70;0.67;;;5.80;99.90;;;;;;5125713;27;20463;-82
2023/10/29 01:31:18;;;;;;;1.07;0.97;;;5.70;99.90;;;;;;5116791;27;20461;-82
2023/10/29 01:33:44;;;;;;;1.67;0.83;;;5.70;99.90;;;;;;5123123;27;20471;-82
2023/10/29 01:36:13;;;;;;;1.60;0.60;;;5.70;99.90;;;;;;5122746;27;20460;-82
2023/10/29 01:38:40;;;;;;;1.27;0.80;;;5.60;99.90;;;;;;5120254;27;20508;-82
2023/10/29 01:41:07;;;;;;;0.70;0.70;;;5.50;99.90;;;;;;5121299;27;20484;-82
2023/10/29 01:43:34;;;;;;;1.07;0.80;;;5.50;99.90;;;;;;5108009;27;20522;-82
2023/10/29 01:46:01;;;;;;;2.53;1.03;;;5.30;99.90;;;;;;5107210;27;20891;-83
2023/10/29 01:48:28;;;;;;;1.53;0.83;;;5.20;99.90;;;;;;5119722;27;20490;-83
2023/10/29 01:50:56;;;;;;;0.70;0.70;;;5.10;99.90;;;;;;5125602;27;20844;-80
2023/10/29 01:53:24;;;;;;;2.30;0.80;;;5.10;99.90;;;;;;5109674;27;20679;-80
2023/10/29 01:55:51;;;;;;;0.70;0.70;;;5.20;99.90;;;;;;5109165;27;21108;-80
2023/10/29 01:58:18;;;;;;;3.27;1.10;;;5.20;99.90;;;;;;5112180;27;20442;-80
2023/10/29 02:00:45;;;;;;;0.80;0.77;;;5.10;99.90;;;;;;5118971;27;20943;-80
2023/10/29 02:03:12;;;;;;;1.73;1.23;;;5.00;99.90;;;;;;5109077;27;20540;-81
2023/10/29 02:05:39;;;;;;;1.00;0.80;;;4.90;99.90;;;;;;5123988;27;20444;-81
2023/10/29 02:08:06;;;;;;;5.23;1.23;;;4.80;99.90;;;;;;5114972;27;20524;-81
2023/10/29 02:10:34;;;;;;;1.43;1.10;;;4.70;99.90;;;;;;5130554;27;20460;-81
2023/10/29 02:13:01;;;;;;;4.20;1.67;;;4.60;99.90;;;;;;5109459;27;20560;-81
2023/10/29 02:15:28;;;;;;;1.37;1.27;;;4.60;99.90;;;;;;5119657;27;20464;-81
2023/10/29 02:17:55;;;;;;;2.80;1.10;;;4.50;99.90;;;;;;5109414;27;20440;-81
2023/10/29 02:20:23;;;;;;;2.33;1.53;;;4.50;99.90;;;;;;5119222;27;20460;-81
2023/10/29 02:22:51;;;;;;;1.43;1.23;;;4.50;99.90;;;;;;5115516;27;20468;-80
2023/10/29 02:25:18;;;;;;;1.27;1.17;;;4.40;99.90;;;;;;5107741;27;20923;-80
2023/10/29 02:27:45;;;;;;;1.73;1.13;;;4.30;99.90;;;;;;5112957;27;20479;-81
2023/10/29 02:30:12;;;;;;;3.17;1.10;;;4.40;99.90;;;;;;5117221;27;20481;-81
2023/10/29 02:32:39;;;;;;;1.90;1.40;;;4.30;99.90;;;;;;5124092;27;20452;-80
2023/10/29 02:35:08;;;;;;;2.70;1.53;;;4.30;99.90;;;;;;5110592;27;20446;-81
2023/10/29 02:37:35;;;;;;;2.13;1.27;;;4.30;99.90;;;;;;5118565;27;20552;-81
2023/10/29 02:40:05;;;;;;;2.07;1.20;;;4.30;99.90;;;;;;5122982;27;20520;-81
2023/10/29 02:42:32;;;;;;;3.07;1.40;;;4.30;99.90;;;;;;5109938;27;20975;-80
2023/10/29 02:44:59;;;;;;;2.00;1.07;;;4.30;99.90;;;;;;5109273;27;20903;-81
2023/10/29 02:47:26;;;;;;;2.27;1.10;;;4.20;99.90;;;;;;5106019;27;20528;-81
2023/10/29 02:49:53;;;;;;;2.27;0.90;;;4.20;99.90;;;;;;5126935;27;20546;-80
2023/10/29 02:52:20;;;;;;;4.13;1.63;;;4.30;99.90;;;;;;5116961;27;20720;-81
2023/10/29 02:54:48;;;;;;;1.57;0.90;;;4.30;99.90;;;;;;5114612;27;20454;-81
2023/10/29 02:57:16;;;;;;;1.13;1.03;;;4.30;99.90;;;;;;5108922;27;20903;-81
2023/10/29 02:59:44;;;;;;;3.70;1.40;;;4.30;99.90;;;;;;5119540;27;20464;-80
2023/10/29 03:02:11;;;;;;;1.40;1.30;;;4.30;99.90;;;;;;5121513;27;20800;-81
2023/10/29 03:04:38;;;;;;;2.07;1.50;;;4.20;99.90;;;;;;5106020;27;20493;-81
2023/10/29 03:07:05;;;;;;;2.03;1.83;;;4.30;99.90;;;;;;5116265;27;20460;-82
2023/10/29 03:09:32;;;;;;;2.10;1.60;;;4.30;99.90;;;;;;5116302;27;20485;-81
2023/10/29 03:11:59;;;;;;;2.17;1.57;;;4.30;99.90;;;;;;5115336;27;20490;-82
2023/10/29 03:14:27;;;;;;;1.53;1.37;;;4.30;99.90;;;;;;5109102;27;20525;-82
2023/10/29 03:16:54;;;;;;;4.67;1.90;;;4.30;99.90;;;;;;5110436;27;20462;-82
2023/10/29 03:19:21;;;;;;;1.53;1.43;;;4.30;99.90;;;;;;5122738;27;20462;-82
2023/10/29 03:21:49;;;;;;;2.13;1.50;;;4.40;99.90;;;;;;5119061;27;20493;-81
2023/10/29 03:24:17;;;;;;;1.63;1.50;;;4.40;99.90;;;;;;5108779;27;20553;-82
2023/10/29 03:26:44;;;;;;;3.80;1.73;;;4.40;99.90;;;;;;5112356;27;20841;-82
2023/10/29 03:29:11;;;;;;;2.03;1.30;;;4.40;99.90;;;;;;5106811;27;20537;-82
2023/10/29 03:31:39;;;;;;;1.80;1.70;;;4.40;99.90;;;;;;5119389;27;20507;-82
2023/10/29 03:34:07;;;;;;;2.53;1.93;;;4.40;99.90;;;;;;5113179;27;20470;-82
2023/10/29 03:36:34;;;;;;;1.77;1.30;;;4.50;99.90;;;;;;5111980;27;20917;-82
2023/10/29 03:39:02;;;;;;;4.70;2.83;;;4.40;99.90;;;;;;5108153;27;20537;-82
2023/10/29 03:41:28;;;;;;;2.33;1.37;;;4.50;99.90;;;;;;5115299;27;21144;-82
2023/10/29 03:43:56;;;;;;;2.60;1.60;;;4.50;99.90;;;;;;5116412;27;21022;-82
2023/10/29 03:46:23;;;;;;;3.00;2.00;;;4.40;99.90;;;;;;5104901;27;20451;-81
2023/10/29 03:48:52;;;;;;;2.47;1.37;;;4.40;99.90;;;;;;5114773;27;20466;-81
2023/10/29 03:51:20;;;;;;;2.87;1.53;;;4.40;99.90;;;;;;5113652;27;21062;-81
2023/10/29 03:53:47;;;;;;;2.50;1.80;;;4.40;99.90;;;;;;5113723;27;20462;-81
2023/10/29 03:56:14;;;;;;;2.37;1.47;;;4.40;99.90;;;;;;5110144;27;20463;-81
2023/10/29 03:58:40;;;;;;;1.87;1.60;;;4.40;99.90;;;;;;5103733;27;21153;-81
2023/10/29 04:01:07;;;;;;;2.20;1.80;;;4.40;99.90;;;;;;5120496;27;20750;-81
2023/10/29 04:03:34;;;;;;;2.00;1.90;;;4.40;99.90;;;;;;5111058;27;20529;-81
2023/10/29 04:06:10;;;;;;;10.77;2.57;;;4.50;99.90;;;;;;5111543;27;20898;-81
2023/10/29 04:08:37;;;;;;;2.07;1.90;;;4.70;99.90;;;;;;5111277;27;20441;-81
2023/10/29 04:11:04;;;;;;;1.57;1.47;;;4.70;99.90;;;;;;5120387;27;20474;-81
2023/10/29 04:13:31;;;;;;;4.97;2.27;;;4.70;99.90;;;;;;5105966;27;20500;-81
2023/10/29 04:15:58;;;;;;;3.17;2.40;;;4.50;99.90;;;;;;5116723;27;20520;-81
2023/10/29 04:18:27;;;;;;;2.83;2.03;;;4.40;99.90;;;;;;5113049;27;20886;-81
2023/10/29 04:20:55;;;;;;;1.33;1.20;;;4.30;99.90;;;;;;5122002;27;20909;-81
2023/10/29 04:23:23;;;;;;;0.97;0.83;;;4.20;99.90;;;;;;5109076;27;20596;-82
2023/10/29 04:25:50;;;;;;;1.47;1.37;;;4.20;99.90;;;;;;5105448;27;20446;-81
2023/10/29 04:28:17;;;;;;;0.70;0.70;;;4.20;99.90;;;;;;5111169;27;20441;-81
2023/10/29 04:30:44;;;;;;;1.27;0.80;;;4.20;99.90;;;;;;5120355;27;20453;-81
2023/10/29 04:33:11;;;;;;;0.87;0.60;;;4.20;99.90;;;;;;5105174;27;20488;-82
2023/10/29 04:35:38;;;;;;;0.87;0.57;;;4.20;99.90;;;;;;5113059;27;20492;-82
2023/10/29 04:38:05;;;;;;;3.00;0.80;;;4.30;99.90;;;;;;5105995;27;20777;-82
2023/10/29 04:40:34;;;;;;;1.93;0.73;;;4.40;99.90;;;;;;5110014;27;20493;-82
2023/10/29 04:43:01;;;;;;;0.70;0.70;;;4.30;99.90;;;;;;5108332;27;20936;-81
2023/10/29 04:45:28;;;;;;;0.90;0.53;;;4.40;99.90;;;;;;5104385;27;20472;-81
2023/10/29 04:47:55;;;;;;;1.37;0.60;;;4.30;99.90;;;;;;5109855;27;20527;-80
2023/10/29 04:50:22;;;;;;;3.50;0.60;;;4.30;99.90;;;;;;5113290;27;20970;-81
2023/10/29 04:52:49;;;;;;;1.97;1.00;;;4.20;99.90;;;;;;5112395;27;20454;-81
2023/10/29 04:55:16;;;;;;;1.87;0.80;;;4.20;99.90;;;;;;5120657;27;20996;-81
2023/10/29 04:57:44;;;;;;;1.07;0.80;;;4.20;99.90;;;;;;5119063;27;20509;-81
2023/10/29 05:00:13;;;;;;;2.20;0.70;;;4.10;99.90;;;;;;5121530;27;20498;-81
2023/10/29 05:02:40;;;;;;;0.90;0.70;;;4.10;99.90;;;;;;5115504;27;20482;-81
2023/10/29 05:05:10;;;;;;;0.87;0.60;;;4.10;99.90;;;;;;5108352;27;20453;-81
2023/10/29 05:07:37;;;;;;;0.90;0.80;;;4.10;99.90;;;;;;5112528;27;20801;-81
2023/10/29 05:10:05;;;;;;;1.77;0.80;;;4.10;99.90;;;;;;5118564;27;20475;-81
2023/10/29 05:12:32;;;;;;;1.07;0.67;;;4.10;99.90;;;;;;5110768;27;20491;-81
2023/10/29 05:15:00;;;;;;;0.80;0.60;;;4.10;99.90;;;;;;5112128;27;20471;-81
2023/10/29 05:17:28;;;;;;;1.93;1.13;;;4.10;99.90;;;;;;5106729;27;20453;-82
2023/10/29 05:19:56;;;;;;;0.80;0.70;;;4.20;99.90;;;;;;5110053;27;20951;-82
2023/10/29 05:22:23;;;;;;;2.03;0.97;;;4.20;99.90;;;;;;5110435;27;20575;-82
2023/10/29 05:24:50;;;;;;;0.70;0.70;;;4.20;99.90;;;;;;5109383;27;20462;-82
2023/10/29 05:27:16;;;;;;;4.33;0.70;;;4.10;99.90;;;;;;5107507;27;20525;-83
2023/10/29 05:29:43;;;;;;;1.20;0.67;;;4.10;99.90;;;;;;5107929;27;20436;-82
2023/10/29 05:32:12;;;;;;;1.00;0.80;;;4.10;99.90;;;;;;5109537;27;20468;-82
2023/10/29 05:34:39;;;;;;;1.00;0.70;;;4.20;99.90;;;;;;5121117;27;20453;-82
2023/10/29 05:37:06;;;;;;;1.00;0.90;;;4.20;99.90;;;;;;5105522;27;20446;-83
2023/10/29 05:39:33;;;;;;;1.40;0.60;;;4.20;99.90;;;;;;5105816;27;20510;-82
2023/10/29 05:42:00;;;;;;;0.80;0.80;;;4.30;99.90;;;;;;5115366;27;20488;-82
2023/10/29 05:44:27;;;;;;;2.13;0.90;;;4.40;99.90;;;;;;5105279;27;20474;-82
2023/10/29 05:46:54;;;;;;;3.70;1.00;;;4.50;99.90;;;;;;5115304;27;20438;-83
2023/10/29 05:49:22;;;;;;;1.53;0.90;;;4.40;99.90;;;;;;5110676;27;20464;-83
2023/10/29 05:51:49;;;;;;;1.90;1.10;;;4.40;99.90;;;;;;5119373;27;20462;-83
2023/10/29 05:54:18;;;;;;;1.90;0.90;;;4.40;99.90;;;;;;5111232;27;20518;-82
2023/10/29 05:56:45;;;;;;;1.93;1.10;;;4.40;99.90;;;;;;5113910;27;20480;-83
2023/10/29 05:59:13;;;;;;;2.10;1.00;;;4.40;99.90;;;;;;5103885;27;20547;-83
2023/10/29 06:01:40;;;;;;;4.60;1.20;;;4.40;99.90;;;;;;5117952;27;20453;-82
2023/10/29 06:04:07;;;;;;;2.83;1.17;;;4.40;99.90;;;;;;5109407;27;20464;-82
2023/10/29 06:06:36;;;;;;;1.97;1.13;;;4.30;99.90;;;;;;5107967;27;20458;-82
2023/10/29 06:09:03;;;;;;;1.17;1.03;;;4.30;99.90;;;;;;5112067;27;20473;-83
2023/10/29 06:11:30;;;;;;;1.83;0.93;;;4.30;99.90;;;;;;5114561;27;20496;-82
2023/10/29 06:13:57;;;;;;;1.03;0.80;;;4.30;99.90;;;;;;5106588;27;20460;-81
2023/10/29 06:16:24;;;;;;;2.10;1.80;;;4.40;99.90;;;;;;5107541;27;20470;-82
2023/10/29 06:18:51;;;;;;;2.67;1.10;;;4.40;99.90;;;;;;5108251;27;20449;-82
2023/10/29 06:21:20;;;;;;;1.60;1.47;;;4.40;99.90;;;;;;5124461;27;20554;-82
2023/10/29 06:23:49;;;;;;;3.23;1.00;;;4.50;99.90;;;;;;5113375;27;20516;-81
2023/10/29 06:26:17;;;;;;;1.53;1.30;;;4.60;99.90;;;;;;5107777;27;20470;-81
2023/10/29 06:28:44;;;;;;;1.10;1.00;;;4.60;99.90;;;;;;5109013;27;20465;-81
2023/10/29 06:31:10;;;;;;;1.50;1.40;;;4.70;99.90;;;;;;5122927;27;20461;-81
2023/10/29 06:33:39;;;;;;;0.93;0.87;;;4.70;99.90;;;;;;5109704;27;20540;-82
2023/10/29 06:36:06;;;;;;;2.07;1.13;;;4.70;99.90;;;;;;5115951;27;20469;-81
2023/10/29 06:38:33;;;;;;;5.90;1.10;;;4.70;99.90;;;;;;5107374;27;20869;-81
2023/10/29 06:41:02;;;;;;;1.70;1.00;;;4.70;99.90;;;;;;5125725;27;21095;-81
2023/10/29 06:43:29;;;;;;;1.33;1.23;;;4.80;99.90;;;;;;5118625;27;20488;-81
2023/10/29 06:45:56;;;;;;;1.70;1.47;;;4.90;99.90;;;;;;5125556;27;20506;-81
2023/10/29 06:48:24;;;;;;;1.80;1.47;;;4.90;99.90;;;;;;5110243;27;20454;-82
2023/10/29 06:50:51;;;;;;;14.53;1.43;;;4.90;99.90;;;;;;5129414;27;20989;-82
2023/10/29 06:53:18;;;;;;;1.63;1.30;;;5.00;99.90;;;;;;5119846;27;20506;-82
2023/10/29 06:55:45;;;;;;;1.80;1.10;;;5.00;99.90;;;;;;5105386;27;21041;-82
2023/10/29 06:58:13;;;;;;;1.47;1.10;;;5.20;99.90;;;;;;5114114;27;20498;-81
2023/10/29 07:00:40;;;;;;;2.03;1.20;;;5.30;99.90;;;;;;5121222;27;20456;-81
2023/10/29 07:03:07;;;;;;;3.00;0.80;;;5.50;99.90;;;;;;5132963;27;20487;-81
2023/10/29 07:05:34;;;;;;;1.00;0.90;;;5.70;99.90;;;;;;5108307;27;20444;-81
2023/10/29 07:08:01;;;;;;;1.20;0.70;;;5.80;99.90;;;;;;5115869;27;20454;-82
2023/10/29 07:10:28;;;;;;;2.40;1.20;;;6.00;99.90;;;;;;5117677;27;21098;-81
2023/10/29 07:12:56;;;;;;;1.07;1.07;;;6.20;99.90;;;;;;5105383;27;20473;-82
2023/10/29 07:15:26;;;;;;;2.80;1.17;;;6.20;99.90;;;;;;5111130;27;20472;-82
2023/10/29 07:17:53;;;;;;;1.10;0.93;;;6.40;99.90;;;;;;5116844;27;20800;-82
2023/10/29 07:20:20;;;;;;;1.10;1.00;;;6.50;99.90;;;;;;5116592;27;20516;-82
2023/10/29 07:22:47;;;;;;;1.50;1.30;;;6.60;99.90;;;;;;5110129;27;20984;-82
2023/10/29 07:25:14;;;;;;;1.67;1.17;;;6.70;99.90;;;;;;5114557;27;20473;-82
2023/10/29 07:27:41;;;;;;;1.20;1.10;;;6.70;99.90;;;;;;5114645;27;20470;-81
2023/10/29 07:30:10;;;;;;;1.50;0.70;;;6.80;99.90;;;;;;5125045;27;20954;-81
2023/10/29 07:32:38;;;;;;;2.07;1.17;;;6.80;99.90;;;;;;5112808;27;20557;-82
2023/10/29 07:35:06;;;;;;;1.13;1.03;;;6.90;99.90;;;;;;5109154;27;20473;-81
2023/10/29 07:37:33;;;;;;;1.13;0.90;;;7.00;99.90;;;;;;5110339;27;20474;-82
2023/10/29 07:40:00;;;;;;;1.30;1.20;;;7.10;99.90;;;;;;5114333;27;20463;-81
2023/10/29 07:42:27;;;;;;;1.90;0.70;;;7.10;99.90;;;;;;5120343;27;20539;-82
2023/10/29 07:44:54;;;;;;;2.50;1.30;;;7.20;99.90;;;;;;5105896;27;20455;-82
2023/10/29 07:47:21;;;;;;;0.90;0.90;;;7.20;99.90;;;;;;5114122;27;20529;-82
2023/10/29 07:49:50;;;;;;;1.00;0.90;;;7.40;99.90;;;;;;5107232;27;20519;-82
2023/10/29 07:52:17;;;;;;;1.40;1.30;;;7.50;99.90;;;;;;5111475;27;20462;-82
2023/10/29 07:54:44;;;;;;;2.67;1.20;;;7.60;99.90;;;;;;5113251;27;20526;-81
2023/10/29 07:57:11;;;;;;;4.60;0.90;;;7.60;99.90;;;;;;5109439;27;20973;-81
2023/10/29 07:59:38;;;;;;;1.37;1.00;;;7.70;99.90;;;;;;5102518;27;20511;-82
2023/10/29 08:02:05;;;;;;;1.57;1.00;;;7.70;99.90;;;;;;5114726;27;20867;-82
2023/10/29 08:04:32;;;;;;;1.27;1.00;;;7.80;99.90;;;;;;5103191;27;20489;-81
2023/10/29 08:07:00;;;;;;;2.13;1.37;;;7.80;99.90;;;;;;5112767;27;20462;-81
2023/10/29 08:09:28;;;;;;;3.07;0.90;;;7.90;99.90;;;;;;5102948;27;20449;-81
2023/10/29 08:11:55;;;;;;;1.27;1.17;;;8.00;99.90;;;;;;5116947;27;20485;-81
2023/10/29 08:14:22;;;;;;;3.00;1.90;;;8.00;99.90;;;;;;5110592;27;20462;-81
2023/10/29 08:16:49;;;;;;;1.20;1.13;;;8.00;99.90;;;;;;5111281;27;20519;-82
2023/10/29 08:19:16;;;;;;;2.43;1.00;;;8.00;99.90;;;;;;5105621;27;20514;-83
2023/10/29 08:21:43;;;;;;;1.90;1.03;;;8.10;99.90;;;;;;5117868;27;20520;-82
2023/10/29 08:24:11;;;;;;;3.07;2.17;;;8.20;99.90;;;;;;5111066;27;20569;-81
2023/10/29 08:26:38;;;;;;;2.07;1.00;;;8.40;99.90;;;;;;5104801;27;20462;-81
2023/10/29 08:29:06;;;;;;;0.93;0.87;;;8.40;99.90;;;;;;5107729;27;20466;-81
2023/10/29 08:31:33;;;;;;;0.97;0.70;;;8.40;99.90;;;;;;5112199;27;20998;-81
2023/10/29 08:34:00;;;;;;;3.43;2.40;;;8.40;99.90;;;;;;5104897;27;20458;-81
2023/10/29 08:36:28;;;;;;;4.30;3.50;;;8.30;99.90;;;;;;5108123;27;20542;-81
2023/10/29 08:38:55;;;;;;;4.80;3.73;;;8.50;99.90;;;;;;5113829;27;20792;-82
2023/10/29 08:41:23;;;;;;;3.50;1.47;;;8.90;99.90;;;;;;5117002;27;20473;-82
2023/10/29 08:43:52;;;;;;;3.80;2.03;;;9.10;99.90;;;;;;5112474;27;20484;-82
2023/10/29 08:46:19;;;;;;;1.60;1.50;;;9.40;99.90;;;;;;5122136;27;20788;-81
2023/10/29 08:48:46;;;;;;;2.20;1.13;;;9.50;99.90;;;;;;5102926;27;20473;-81
2023/10/29 08:51:14;;;;;;;1.43;1.33;;;9.50;99.90;;;;;;5116463;27;20469;-81
2023/10/29 08:53:41;;;;;;;1.20;0.90;;;9.70;99.90;;;;;;5113463;27;20461;-81
2023/10/29 08:56:08;;;;;;;1.80;1.60;;;9.80;99.90;;;;;;5105407;27;20454;-81
2023/10/29 08:58:37;;;;;;;1.07;0.80;;;9.90;99.90;;;;;;5116716;27;20464;-80
2023/10/29 09:01:07;;;;;;;2.03;0.80;;;10.10;99.90;;;;;;5120697;27;20470;-82
2023/10/29 09:03:34;;;;;;;0.80;0.80;;;10.30;99.90;;;;;;5105172;27;20480;-81
2023/10/29 09:06:03;;;;;;;1.33;0.97;;;10.40;99.90;;;;;;5106191;27;20994;-81
2023/10/29 09:08:31;;;;;;;2.80;1.07;;;10.50;99.90;;;;;;5124200;27;20764;-83
2023/10/29 09:10:58;;;;;;;1.20;0.90;;;10.60;99.90;;;;;;5112882;27;20495;-80
2023/10/29 09:13:25;;;;;;;1.20;0.93;;;10.50;99.90;;;;;;5115930;27;20499;-82
2023/10/29 09:15:53;;;;;;;1.00;0.90;;;10.50;99.90;;;;;;5111093;27;20503;-82
2023/10/29 09:18:20;;;;;;;1.20;1.13;;;10.60;99.90;;;;;;5107834;27;20522;-82
2023/10/29 09:20:47;;;;;;;2.07;1.03;;;10.60;99.90;;;;;;5108721;27;20789;-82
2023/10/29 09:23:14;;;;;;;3.03;1.23;;;10.60;99.90;;;;;;5106763;27;20535;-83
2023/10/29 09:25:44;;;;;;;3.20;1.80;;;10.80;99.90;;;;;;5103772;27;20546;-81
2023/10/29 09:28:12;;;;;;;1.63;0.90;;;10.80;99.90;;;;;;5106475;27;20481;-81
2023/10/29 09:30:39;;;;;;;3.57;1.20;;;10.90;99.90;;;;;;5110508;27;20462;-81
2023/10/29 09:33:08;;;;;;;3.50;1.00;;;11.00;99.90;;;;;;5106934;27;20529;-81
2023/10/29 09:35:35;;;;;;;1.80;1.40;;;11.00;99.90;;;;;;5120741;27;20855;-81
2023/10/29 09:38:03;;;;;;;1.83;1.50;;;11.10;99.90;;;;;;5105312;27;20452;-81
2023/10/29 09:40:30;;;;;;;2.17;1.03;;;11.10;99.90;;;;;;5118933;27;20464;-81
2023/10/29 09:42:57;;;;;;;1.33;1.17;;;11.10;99.90;;;;;;5108726;27;20558;-81
2023/10/29 09:45:25;;;;;;;4.07;3.10;;;11.20;99.90;;;;;;5105473;27;20446;-81
2023/10/29 09:47:53;;;;;;;2.30;1.00;;;11.30;99.90;;;;;;5104538;27;20983;-81
2023/10/29 09:50:23;;;;;;;3.37;2.37;;;11.30;99.90;;;;;;5116976;27;20850;-80
2023/10/29 09:52:51;;;;;;;2.43;1.30;;;11.40;99.90;;;;;;5108302;27;20466;-81
2023/10/29 09:55:20;;;;;;;1.23;1.07;;;11.40;99.90;;;;;;5108516;27;20470;-81
2023/10/29 09:57:47;;;;;;;4.10;1.50;;;11.50;99.90;;;;;;5112473;27;20446;-81
2023/10/29 10:00:16;;;;;;;2.33;1.33;;;11.70;99.90;;;;;;5113858;27;20544;-81
2023/10/29 10:02:53;;;;;;;2.20;1.37;;;11.80;99.90;;;;;;5106440;27;20463;-81
2023/10/29 10:05:23;;;;;;;2.37;1.53;;;11.90;99.90;;;;;;5114814;27;20431;-81
2023/10/29 10:07:52;;;;;;;1.27;1.10;;;11.90;99.90;;;;;;5106060;27;20453;-81
2023/10/29 10:10:20;;;;;;;1.50;1.40;;;12.10;99.90;;;;;;5119897;27;20507;-80
2023/10/29 10:12:48;;;;;;;3.20;1.10;;;12.20;99.90;;;;;;5106753;27;20541;-81
2023/10/29 10:15:17;;;;;;;1.83;1.10;;;12.20;99.90;;;;;;5113157;27;20439;-81
2023/10/29 10:17:49;;;;;;;2.40;2.13;;;12.20;99.90;;;;;;5108888;27;20440;-80
2023/10/29 10:20:21;;;;;;;1.00;0.90;;;12.30;99.90;;;;;;5115817;27;20876;-81
2023/10/29 10:22:56;;;;;;;1.77;1.17;;;12.40;99.90;;;;;;5121133;27;20973;-81
2023/10/29 10:25:25;;;;;;;1.43;0.87;;;12.60;99.90;;;;;;5111401;27;20454;-83
2023/10/29 10:27:53;;;;;;;1.67;1.00;;;12.80;99.90;;;;;;5107260;27;20501;-80
2023/10/29 10:30:28;;;;;;;0.70;0.70;;;13.00;99.90;;;;;;5113734;27;20467;-80
2023/10/29 10:33:08;;;;;;;1.07;1.00;;;13.00;99.90;;;;;;5116250;27;20464;-82
2023/10/29 10:35:39;;;;;;;1.23;0.80;;;13.10;99.90;;;;;;5118513;27;20464;-81
2023/10/29 10:38:08;;;;;;;2.20;1.00;;;13.30;99.90;;;;;;5108880;27;20465;-82
2023/10/29 10:40:35;;;;;;;2.07;0.80;;;13.50;99.90;;;;;;5119028;27;20850;-82
2023/10/29 10:43:02;;;;;;;1.47;1.00;;;13.40;99.90;;;;;;5117284;27;20875;-82
2023/10/29 10:45:31;;;;;;;4.67;1.13;;;13.60;99.90;;;;;;5110570;27;20563;-82
2023/10/29 10:48:00;;;;;;;0.70;0.57;;;13.80;99.90;;;;;;5108934;27;20472;-83
2023/10/29 10:50:28;;;;;;;0.70;0.70;;;13.90;99.90;;;;;;5110126;27;20442;-82
2023/10/29 10:52:56;;;;;;;0.80;0.80;;;14.00;99.90;;;;;;5122401;27;20507;-82
2023/10/29 10:55:25;;;;;;;1.00;0.60;;;14.10;99.90;;;;;;5106158;27;21136;-83
2023/10/29 10:57:53;;;;;;;0.80;0.53;;;14.20;99.90;;;;;;5116838;27;20847;-82
2023/10/29 11:00:21;;;;;;;0.80;0.60;;;14.30;99.90;;;;;;5106704;27;20522;-82
2023/10/29 11:02:50;;;;;;;1.00;0.87;;;14.50;99.90;;;;;;5114975;27;20449;-82
2023/10/29 11:05:18;;;;;;;3.40;1.00;;;14.60;99.90;;;;;;5118023;27;20514;-82
2023/10/29 11:07:45;;;;;;;3.93;1.03;;;14.70;99.90;;;;;;5111096;27;20546;-82
2023/10/29 11:10:14;;;;;;;1.03;0.87;;;14.70;99.90;;;;;;5115366;27;20472;-82
2023/10/29 11:12:43;;;;;;;1.47;0.80;;;14.80;99.90;;;;;;5130778;27;20542;-82
2023/10/29 11:15:14;;;;;;;9.93;1.03;;;15.00;99.90;;;;;;5112584;27;20460;-82
2023/10/29 11:17:52;;;;;;;1.00;0.83;;;15.10;99.90;;;;;;5107424;27;21079;-82
2023/10/29 11:20:53;;;;;;;1.00;0.70;;;15.30;99.90;;;;;;5113211;27;20496;-82
2023/10/29 11:23:25;;;;;;;0.70;0.60;;;15.60;99.90;;;;;;5107436;27;20491;-82
2023/10/29 11:26:12;;;;;;;0.70;0.60;;;15.70;99.90;;;;;;5116157;27;20712;-82
2023/10/29 11:28:45;;;;;;;1.30;0.70;;;15.70;99.90;;;;;;5121363;27;20864;-82
2023/10/29 11:31:13;;;;;;;2.00;0.90;;;15.50;99.90;;;;;;5115570;27;20522;-82
2023/10/29 11:33:41;;;;;;;1.17;0.70;;;15.30;99.90;;;;;;5114680;27;20488;-81
2023/10/29 11:36:31;;;;;;;1.17;0.80;;;15.30;99.90;;;;;;5129036;27;20462;-81
2023/10/29 11:39:22;;;;;;;1.03;0.93;;;15.50;99.90;;;;;;5106906;27;20456;-81
2023/10/29 11:41:52;;;;;;;4.37;1.63;;;15.50;99.90;;;;;;5122363;27;20482;-81
2023/10/29 11:44:24;;;;;;;9.50;1.30;;;15.60;99.90;;;;;;5115838;27;20495;-81
2023/10/29 11:47:07;;;;;;;1.10;0.53;;;15.60;99.90;;;;;;5113489;27;20459;-81
2023/10/29 11:50:12;;;;;;;4.27;2.40;;;15.10;99.30;;;;;;5118748;27;20465;-81
2023/10/29 11:52:45;;;;;;;3.13;2.93;;;15.00;99.90;;;;;;5118864;27;20499;-81
2023/10/29 11:55:12;;;;;;;2.93;1.30;;;15.10;99.90;;;;;;5110513;27;20509;-80
2023/10/29 11:57:45;;;;;;;4.30;1.30;;;15.10;99.90;;;;;;5124122;27;20485;-81
2023/10/29 12:00:16;;;;;;;0.90;0.70;;;15.20;99.90;;;;;;5123779;27;20477;-82
2023/10/29 12:02:47;;;;;;;1.53;1.03;;;15.00;99.90;;;;;;5113404;27;20847;-82
2023/10/29 12:05:15;;;;;;;0.90;0.70;;;15.00;99.90;;;;;;5107014;27;20492;-82
2023/10/29 12:07:42;;;;;;;1.23;1.10;;;15.00;99.90;;;;;;5110319;27;20874;-82
2023/10/29 12:10:10;;;;;;;0.80;0.80;;;15.20;99.90;;;;;;5112177;27;21156;-82
2023/10/29 12:12:38;;;;;;;0.70;0.70;;;15.00;99.90;;;;;;5115455;27;20469;-82
2023/10/29 12:15:07;;;;;;;2.60;1.20;;;15.00;99.90;;;;;;5108494;27;20482;-83
2023/10/29 12:17:35;;;;;;;1.63;1.00;;;14.80;99.90;;;;;;5119229;27;20448;-83
2023/10/29 12:20:03;;;;;;;2.60;1.20;;;14.80;99.90;;;;;;5112582;27;20505;-82
2023/10/29 12:22:32;;;;;;;1.00;0.90;;;14.90;99.90;;;;;;5109292;27;20487;-83
2023/10/29 12:25:00;;;;;;;3.23;1.50;;;14.80;99.90;;;;;;5110161;27;21158;-83
2023/10/29 12:27:27;;;;;;;2.27;1.23;;;14.80;99.90;;;;;;5115184;27;20473;-83
2023/10/29 12:29:54;;;;;;;1.93;0.90;;;14.70;99.90;;;;;;5104710;27;20453;-83
2023/10/29 12:32:23;;;;;;;1.23;1.13;;;14.70;99.90;;;;;;5121260;27;21364;-82
2023/10/29 12:34:53;;;;;;;1.40;1.30;;;14.60;99.90;;;;;;5116188;27;20440;-84
2023/10/29 12:37:21;;;;;;;2.10;1.73;;;14.30;99.90;;;;;;5111750;27;20470;-83
2023/10/29 12:39:51;;;;;;;2.47;1.50;;;14.00;99.90;;;;;;5112388;27;20897;-83
2023/10/29 12:42:18;;;;;;;2.63;1.50;;;13.80;99.90;;;;;;5115285;27;20476;-83
2023/10/29 12:44:53;;;;;;;1.80;1.67;;;13.70;99.90;;;;;;5118466;27;20511;-82
2023/10/29 12:47:20;;;;;;;2.10;1.90;;;13.70;99.90;;;;;;5112441;27;20529;-82
2023/10/29 12:49:58;;;;;;;1.47;1.37;;;13.80;99.90;;;;;;5105417;27;20819;-82
2023/10/29 12:52:26;;;;;;;1.77;1.27;;;13.80;99.90;;;;;;5127118;27;20511;-82
2023/10/29 12:54:53;;;;;;;2.60;1.70;;;13.80;99.90;;;;;;5124150;27;20518;-82
2023/10/29 12:57:20;;;;;;;1.53;1.27;;;13.80;99.90;;;;;;5127766;27;20439;-82